Flight Track Log - Related Links

Times and Time Zones

All times are in EDT time to prevent confusion due to time zone crossing. See the BOE5 flight status page for this flight to view local times or setup timezone preferences in your user account.

Time Position Orientation Groundspeed Altitude Reporting Facility
EDT Latitude Longitude Course Direction KTS MPH feet Rate Location/Type
Sat 01:38:16 PM 47.2581 -119.4114 297° West 205 236 6,100  Level Seattle Center
Sat 01:39:17 PM 47.2900 -119.5028 297° West 252 290 9,800 2,951 Climbing Seattle Center
Sat 01:40:18 PM 47.3283 -119.6136 297° West 318 366 12,100 2,656 Climbing Seattle Center
Sat 01:41:19 PM 47.3781 -119.7575 297° West 369 425 15,200 1,918 Climbing Seattle Center
Sat 01:42:20 PM 47.4253 -119.8997 296° West 386 444 16,000 393 Climbing Seattle Center
Sat 01:43:21 PM 47.4717 -120.0381 296° West 378 435 16,000  Level Seattle Center
Sat 01:44:22 PM 47.5194 -120.1783 297° West 383 441 16,000  Level Seattle Center
Sat 01:45:24 PM 47.5689 -120.3294 296° West 379 436 16,000  Level Seattle Center
Sat 01:46:25 PM 47.6094 -120.4533 296° West 386 444 16,000  Level Seattle Center
Sat 01:47:26 PM 47.6556 -120.5919 296° West 380 437 16,000  Level Seattle Center
Sat 01:48:27 PM 47.6869 -120.7397 288° West 380 437 16,000 49 Level Seattle Center
Sat 01:49:28 PM 47.7225 -120.9003 288° West 381 438 16,100 -49 Climbing Seattle Center
Sat 01:50:29 PM 47.7525 -121.0500 287° West 382 440 15,900 -984 Descending Seattle Center
Sat 01:51:30 PM 47.7839 -121.1969 288° West 380 437 14,100 -2,024 Descending Seattle Center
Sat 01:51:52 PM 47.7994 -121.2775 286° West 377 434 13,100 -1,869 Descending Seattle Center
Sat 01:52:31 PM 47.8194 -121.3703 288° West 387 445 12,200 -1,361 Descending Seattle Center
Sat 01:53:29 PM 47.8481 -121.5150 286° West 367 422 10,900 -1,168 Descending Seattle Center
Sat 01:54:24 PM 47.8714 -121.6308 287° West 312 359 10,000 -466 Descending Seattle Center
Sat 01:55:25 PM 47.8614 -121.7392 262° West 269 310 10,000  Level Seattle Center
Sat 01:56:26 PM 47.8028 -121.8153 221° Southwest 274 315 10,000 -344 Level Seattle Center
Sat 01:57:27 PM 47.7331 -121.8647 206° Southwest 284 327 9,300 -1,552 Descending Seattle Center
Sat 01:58:22 PM 47.6664 -121.9089 204° Southwest 281 323 7,000 -2,451 Descending Seattle Center
Sat 01:58:38 PM 47.6453 -121.9219 203° Southwest 277 319 6,400 -1,433 Descending Seattle Center
Sat 01:59:29 PM 47.5856 -121.9575 202° Southwest 272 313 5,400 -792 Descending Seattle Center
Sat 02:00:24 PM 47.5208 -121.9839 195° South 256 295 5,000 -338 Descending Seattle Center
Sat 02:00:40 PM 47.5058 -121.9897 195° South 260 299 5,000 -90 Level Seattle Center
Sat 02:01:31 PM 47.4603 -122.0078 195° South 189 217 4,900 -453 Descending Seattle Center
Sat 02:02:26 PM 47.4175 -122.0317 201° Southwest 164 189 4,200 -592 Descending Seattle Center
Sat 02:02:42 PM 47.4094 -122.0492 236° Southwest 174 200 4,200 -400 Level Seattle Center
Sat 02:03:26 PM 47.3908 -122.0925 238° Southwest 177 204 3,800 -689 Descending Seattle Center
Sat 02:03:43 PM 47.3833 -122.1114 240° Southwest 179 206 3,500 -982 Descending Seattle Center
Sat 02:04:21 PM 47.3931 -122.1536 289° West 182 209 2,900 -885 Descending Seattle Center
Sat 02:04:44 PM 47.4025 -122.1778 300° West 178 205 2,600 -873 Descending Seattle Center
Sat 02:05:16 PM 47.4181 -122.2083 307° West 175 201 2,100 -590 Descending Seattle Center
Sat 02:05:45 PM 47.4367 -122.2236 331° Northwest 169 194 2,000 -689 Descending Seattle Center
Sat 02:06:17 PM 47.4606 -122.2439 330° Northwest 173 199 1,400 -1,082 Descending Seattle Center
Sat 02:06:46 PM 47.4800 -122.2619 328° Northwest 168 193 900 -896 Descending Seattle Center
Sat 02:07:24 PM 47.5011 -122.2806 329° Northwest 151 174 400 -689 Descending Seattle Center
Sat 02:07:47 PM 47.5092 -122.2858 336° Northwest 148 170 200 -522 Descending Seattle Center
Sat 02:10:00 PM 47.5167 -122.3000 258° West  Level FlightAware Approximate

Login

Don't have an account? Register now (free) for customized features, flight alerts, and more!